Aeolos — V7PS2 — position and weather

sailwx.info

Track history (hours):
 
Tides and Currents Weather Stations Pressure Air Temp Water Temp Dewpoint Dewpoint Depression Visibility Wind Speed Wind Dir Waves Ship Positions

Aeolos

Last reported at 2015-Mar-26 07:13 UTC. Time now 2015-Mar-30 07:11 UTC.
Position N 40°11' W 028°33'.

Length 172 m; draft 8.1 m.

Type: Cargo ship. MMSI: 538003275.

Date/timePositionNaut miles runAvg speedWind from/ knotsBaromVisibWave heightAir tempDewpointWater temp
2015-Mar-26 07:13N 40°11' W 028°33'914.0
2015-Mar-26 06:33N 40°07' W 028°44'1414.0
2015-Mar-26 05:33N 39°60' W 028°60'1413.9
2015-Mar-26 04:33N 39°53' W 029°15'1414.2
2015-Mar-26 03:33N 39°46' W 029°31'1414.3
2015-Mar-26 02:33N 39°38' W 029°47'1414.3
2015-Mar-26 01:33N 39°31' W 030°03'1414.2
2015-Mar-26 00:33N 39°23' W 030°18'1514.5
2015-Mar-25 23:33N 39°15' W 030°34'1614.3
2015-Mar-25 22:26N 39°07' W 030°52'1814.0
2015-Mar-25 21:09N 38°59' W 031°13'914.3
2015-Mar-25 20:33N 38°55' W 031°23'3314.1
2015-Mar-25 18:12N 38°38' W 031°59'1114.3
2015-Mar-25 17:27N 38°33' W 032°11'3214.6
2015-Mar-25 15:16N 38°18' W 032°47'1314.5
2015-Mar-25 14:23N 38°12' W 033°01'  
Track history (hours):
 
Tides and Currents Weather Stations Pressure Air Temp Water Temp Dewpoint Dewpoint Depression Visibility Wind Speed Wind Dir Waves Ship Positions

Aeolos

Last reported at 2015-Mar-26 07:13 UTC. Time now 2015-Mar-30 07:11 UTC.
Position N 40°11' W 028°33'.

Length 172 m; draft 8.1 m.

Type: Cargo ship. MMSI: 538003275.

Date/timePositionNaut miles runAvg speedWind from/ knotsBaromVisibWave heightAir tempDewpointWater temp
2015-Mar-26 07:13N 40°11' W 028°33'914.0
2015-Mar-26 06:33N 40°07' W 028°44'1414.0
2015-Mar-26 05:33N 39°60' W 028°60'1413.9
2015-Mar-26 04:33N 39°53' W 029°15'1414.2
2015-Mar-26 03:33N 39°46' W 029°31'1414.3
2015-Mar-26 02:33N 39°38' W 029°47'1414.3
2015-Mar-26 01:33N 39°31' W 030°03'1414.2
2015-Mar-26 00:33N 39°23' W 030°18'1514.5
2015-Mar-25 23:33N 39°15' W 030°34'1614.3
2015-Mar-25 22:26N 39°07' W 030°52'1814.0
2015-Mar-25 21:09N 38°59' W 031°13'914.3
2015-Mar-25 20:33N 38°55' W 031°23'3314.1
2015-Mar-25 18:12N 38°38' W 031°59'1114.3
2015-Mar-25 17:27N 38°33' W 032°11'3214.6
2015-Mar-25 15:16N 38°18' W 032°47'1314.5
2015-Mar-25 14:23N 38°12' W 033°01'  

Dump ship's entire track history